createdAt,value
2023-03-26T00:01:38.197Z,98105.53
2023-03-26T00:04:06.149Z,98104.79
2023-03-26T00:06:38.366Z,98108.33
2023-03-26T00:09:06.748Z,98109.63
2023-03-26T00:11:38.175Z,98107.33
2023-03-26T00:14:09.108Z,98101.89
2023-03-26T00:16:36.436Z,98092.92
2023-03-26T00:19:03.541Z,98090.02
2023-03-26T00:21:31.069Z,98090.06
2023-03-26T00:24:06.026Z,98087.19
2023-03-26T00:26:33.892Z,98086.45
2023-03-26T00:29:02.798Z,98088.61
2023-03-26T00:31:30.655Z,98085.94
2023-03-26T00:34:03.275Z,98088.83
2023-03-26T00:36:31.537Z,98087.83
2023-03-26T00:38:58.425Z,98087.48
2023-03-26T00:41:30.268Z,98099.14
2023-03-26T00:43:58.205Z,98096.23
2023-03-26T00:46:28.285Z,98090.50
2023-03-26T00:48:59.227Z,98093.73
2023-03-26T00:51:26.513Z,98089.70
2023-03-26T00:56:01.314Z,98088.00
2023-03-26T00:58:30.222Z,98095.86
2023-03-26T01:01:00.696Z,98097.16
2023-03-26T01:03:35.152Z,98095.77
2023-03-26T01:06:08.164Z,98112.88
2023-03-26T01:08:48.137Z,98101.37
2023-03-26T01:11:20.172Z,98104.73
2023-03-26T01:13:56.560Z,98094.29
2023-03-26T01:16:38.261Z,98091.54
2023-03-26T01:19:34.145Z,98089.40
2023-03-26T01:22:03.045Z,98086.00
2023-03-26T01:24:31.784Z,98085.04
2023-03-26T01:27:27.531Z,98087.41
2023-03-26T01:30:07.286Z,98085.43
2023-03-26T01:32:44.221Z,98083.98
2023-03-26T01:35:35.356Z,98083.96
2023-03-26T01:38:25.025Z,98088.71
2023-03-26T01:41:00.879Z,98089.73
2023-03-26T01:43:32.306Z,98088.85
2023-03-26T01:46:02.353Z,98087.12
2023-03-26T01:48:36.556Z,98092.85
2023-03-26T01:51:05.675Z,98091.02
2023-03-26T01:53:35.498Z,98089.77
2023-03-26T01:56:12.843Z,98089.86
2023-03-26T01:59:08.555Z,98092.81
2023-03-26T02:01:47.925Z,98093.31
2023-03-26T02:04:26.641Z,98099.67
2023-03-26T02:07:06.526Z,98102.66
2023-03-26T02:09:42.389Z,98109.41
2023-03-26T02:12:16.702Z,98114.73
2023-03-26T02:14:45.234Z,98114.23
2023-03-26T02:17:13.620Z,98126.59
2023-03-26T02:19:42.946Z,98132.05
2023-03-26T02:22:15.993Z,98139.10
2023-03-26T02:24:46.174Z,98139.34
2023-03-26T02:27:18.564Z,98146.03
2023-03-26T02:29:47.823Z,98152.56
2023-03-26T02:32:19.373Z,98158.85
2023-03-26T02:34:48.102Z,98157.38
2023-03-26T02:37:19.275Z,98162.43
2023-03-26T02:39:48.827Z,98168.64
2023-03-26T02:42:31.908Z,98171.32
2023-03-26T02:45:00.721Z,98173.96
2023-03-26T02:47:47.868Z,98177.77
2023-03-26T02:50:46.192Z,98186.91
2023-03-26T02:53:33.019Z,98185.38
2023-03-26T02:56:28.182Z,98186.31
2023-03-26T02:59:13.981Z,98188.58
2023-03-26T03:01:44.026Z,98192.69
2023-03-26T03:04:13.064Z,98198.48
2023-03-26T03:06:44.786Z,98203.54
2023-03-26T03:09:13.391Z,98207.21
2023-03-26T03:11:44.266Z,98220.57
2023-03-26T03:14:13.091Z,98228.95
2023-03-26T03:16:43.942Z,98234.17
2023-03-26T03:19:13.018Z,98242.65
2023-03-26T03:21:46.616Z,98243.05
2023-03-26T03:24:18.663Z,98242.92
2023-03-26T03:26:50.391Z,98246.66
2023-03-26T03:29:33.516Z,98251.11
2023-03-26T03:32:24.574Z,98257.79
2023-03-26T03:34:56.693Z,98270.72
2023-03-26T03:37:27.182Z,98276.05
2023-03-26T03:39:56.267Z,98281.86
2023-03-26T03:42:27.643Z,98289.02
2023-03-26T03:44:57.725Z,98300.02
2023-03-26T03:47:53.464Z,98300.08
2023-03-26T03:50:27.783Z,98301.34
2023-03-26T03:53:26.207Z,98300.67
2023-03-26T03:56:17.771Z,98301.76
2023-03-26T03:59:11.943Z,98306.64
2023-03-26T04:01:43.236Z,98308.38
2023-03-26T04:04:17.596Z,98305.29
2023-03-26T04:06:53.209Z,98311.73
2023-03-26T04:09:21.564Z,98316.49
2023-03-26T04:11:51.141Z,98318.56
2023-03-26T04:14:36.432Z,98321.48
2023-03-26T04:17:15.969Z,98319.66
2023-03-26T04:19:44.885Z,98323.13
2023-03-26T04:22:14.048Z,98327.87
2023-03-26T04:24:50.365Z,98331.67
2023-03-26T04:27:32.227Z,98332.81
2023-03-26T04:30:15.812Z,98333.54
2023-03-26T04:32:47.109Z,98338.15
2023-03-26T04:35:16.802Z,98340.84
2023-03-26T04:37:54.116Z,98345.22
2023-03-26T04:40:30.733Z,98347.23
2023-03-26T04:43:18.156Z,98351.70
2023-03-26T04:46:05.678Z,98350.82
2023-03-26T04:48:38.936Z,98355.09
2023-03-26T04:51:10.284Z,98358.95
2023-03-26T04:53:40.459Z,98366.20
2023-03-26T04:56:48.375Z,98358.70
2023-03-26T04:59:41.550Z,98358.79
2023-03-26T05:02:16.221Z,98363.64
2023-03-26T05:04:51.100Z,98370.31
2023-03-26T05:07:22.590Z,98363.27
2023-03-26T05:09:55.020Z,98363.97
2023-03-26T05:12:44.695Z,98370.14
2023-03-26T05:15:26.538Z,98370.52
2023-03-26T05:18:16.736Z,98373.60
2023-03-26T05:20:49.094Z,98372.09
2023-03-26T05:23:19.433Z,98373.29
2023-03-26T05:25:54.444Z,98378.98
2023-03-26T05:28:26.895Z,98385.27
2023-03-26T05:31:24.064Z,98390.78
2023-03-26T05:33:55.551Z,98396.98
2023-03-26T05:36:28.476Z,98396.09
2023-03-26T05:39:25.802Z,98397.47
2023-03-26T05:41:56.881Z,98397.50
2023-03-26T05:44:33.567Z,98404.35
2023-03-26T05:47:05.771Z,98410.23
2023-03-26T05:49:34.596Z,98411.90
2023-03-26T05:52:06.236Z,98409.32
2023-03-26T05:54:54.934Z,98408.15
2023-03-26T05:57:52.458Z,98408.15
2023-03-26T06:00:43.270Z,98405.92
2023-03-26T06:03:12.947Z,98408.10
2023-03-26T06:06:16.615Z,98405.45
2023-03-26T06:09:02.345Z,98409.10
2023-03-26T06:11:32.151Z,98406.42
2023-03-26T06:14:43.585Z,98402.32
2023-03-26T06:17:19.811Z,98403.64
2023-03-26T06:20:12.653Z,98404.94
2023-03-26T06:22:44.074Z,98402.42
2023-03-26T06:25:23.804Z,98408.80
2023-03-26T06:28:16.008Z,98409.79
2023-03-26T06:30:59.278Z,98408.56
2023-03-26T06:33:53.439Z,98401.15
2023-03-26T06:36:21.740Z,98400.17
2023-03-26T06:38:51.633Z,98399.98
2023-03-26T06:41:19.880Z,98402.36
2023-03-26T06:44:00.544Z,98403.20
2023-03-26T06:46:48.802Z,98406.39
2023-03-26T06:49:45.334Z,98402.27
2023-03-26T06:52:41.819Z,98398.64
2023-03-26T06:55:24.835Z,98404.74
2023-03-26T06:58:19.233Z,98402.58
2023-03-26T07:01:06.349Z,98403.27
2023-03-26T07:03:53.634Z,98400.27
2023-03-26T07:06:40.765Z,98401.82
2023-03-26T07:09:30.700Z,98402.38
2023-03-26T07:12:17.661Z,98402.90
2023-03-26T07:15:14.818Z,98402.31
2023-03-26T07:17:53.919Z,98400.52
2023-03-26T07:20:33.865Z,98399.97
2023-03-26T07:23:02.904Z,98405.14
2023-03-26T07:25:59.491Z,98402.23
2023-03-26T07:28:40.719Z,98405.81
2023-03-26T07:32:09.626Z,98408.79
2023-03-26T07:34:49.408Z,98418.27
2023-03-26T07:38:22.977Z,98414.99
2023-03-26T07:41:36.133Z,98408.81
2023-03-26T07:44:55.842Z,98424.65
2023-03-26T07:47:47.280Z,98428.16
2023-03-26T07:50:28.712Z,98418.27
2023-03-26T07:53:11.191Z,98421.79
2023-03-26T07:56:26.595Z,98425.40
2023-03-26T07:59:23.152Z,98433.38
2023-03-26T08:02:35.353Z,98430.92
2023-03-26T08:05:26.166Z,98429.52
2023-03-26T08:08:39.964Z,98431.39
2023-03-26T08:11:29.582Z,98425.77
2023-03-26T08:14:18.399Z,98438.27
2023-03-26T08:16:52.742Z,98439.95
2023-03-26T08:19:46.144Z,98441.96
2023-03-26T08:22:17.530Z,98447.66
2023-03-26T08:25:04.644Z,98445.38
2023-03-26T08:27:40.391Z,98450.02
2023-03-26T08:30:15.046Z,98450.96
2023-03-26T08:32:47.052Z,98433.89
2023-03-26T08:35:15.583Z,98434.30
2023-03-26T08:37:45.416Z,98428.52
2023-03-26T08:40:13.919Z,98431.11
2023-03-26T08:43:24.121Z,98437.91
2023-03-26T08:46:04.353Z,98432.18
2023-03-26T08:49:02.090Z,98431.70
2023-03-26T08:52:16.500Z,98429.77
2023-03-26T08:54:48.710Z,98428.35
2023-03-26T08:57:44.687Z,98429.56
2023-03-26T09:00:18.299Z,98426.29
2023-03-26T09:03:41.770Z,98425.44
2023-03-26T09:06:34.614Z,98425.90
2023-03-26T09:09:32.372Z,98430.71
2023-03-26T09:12:20.466Z,98431.33
2023-03-26T09:15:14.306Z,98434.68
2023-03-26T09:18:17.414Z,98436.48
2023-03-26T09:21:11.989Z,98435.50
2023-03-26T09:24:09.283Z,98435.83
2023-03-26T09:27:00.026Z,98430.95
2023-03-26T09:29:52.980Z,98432.64
2023-03-26T09:32:46.310Z,98430.48
2023-03-26T09:35:42.188Z,98428.80
2023-03-26T09:38:41.142Z,98429.68
2023-03-26T09:41:44.845Z,98430.05
2023-03-26T09:44:21.682Z,98433.28
2023-03-26T09:47:38.452Z,98432.59
2023-03-26T09:50:38.457Z,98434.98
2023-03-26T09:53:31.619Z,98433.02
2023-03-26T09:56:44.743Z,98433.83
2023-03-26T09:59:35.440Z,98435.42
2023-03-26T10:02:45.478Z,98436.47
2023-03-26T10:05:34.464Z,98438.33
2023-03-26T10:08:31.563Z,98433.29
2023-03-26T10:11:10.608Z,98425.90
2023-03-26T10:13:43.566Z,98431.71
2023-03-26T10:16:33.300Z,98432.16
2023-03-26T10:19:39.735Z,98434.70
2023-03-26T10:22:27.458Z,98435.48
2023-03-26T10:25:36.292Z,98438.65
2023-03-26T10:28:18.597Z,98443.30
2023-03-26T10:31:15.236Z,98444.17
2023-03-26T10:34:06.584Z,98442.65
2023-03-26T10:36:36.320Z,98445.32
2023-03-26T10:39:37.850Z,98443.39
2023-03-26T10:42:29.297Z,98444.73
2023-03-26T10:45:31.996Z,98452.16
2023-03-26T10:48:15.566Z,98457.75
2023-03-26T10:50:50.232Z,98457.63
2023-03-26T10:53:39.381Z,98456.37
2023-03-26T10:56:33.389Z,98450.53
2023-03-26T10:59:07.140Z,98441.77
2023-03-26T11:02:12.217Z,98443.08
2023-03-26T11:04:41.072Z,98433.75
2023-03-26T11:07:28.241Z,98430.07
2023-03-26T11:10:04.505Z,98427.55
2023-03-26T11:12:49.436Z,98434.11
2023-03-26T11:15:36.163Z,98430.98
2023-03-26T11:18:27.560Z,98426.34
2023-03-26T11:21:19.370Z,98423.50
2023-03-26T11:24:26.634Z,98422.13
2023-03-26T11:26:56.294Z,98417.09
2023-03-26T11:29:44.579Z,98417.61
2023-03-26T11:32:15.683Z,98417.83
2023-03-26T11:34:52.575Z,98422.32
2023-03-26T11:37:33.263Z,98418.89
2023-03-26T11:40:06.484Z,98413.41
2023-03-26T11:42:35.948Z,98413.64
2023-03-26T11:45:08.246Z,98412.23
2023-03-26T11:47:57.634Z,98416.67
2023-03-26T11:50:27.781Z,98414.01
2023-03-26T11:53:07.174Z,98410.02
2023-03-26T11:55:35.732Z,98411.39
2023-03-26T11:58:11.658Z,98402.55
2023-03-26T12:00:40.406Z,98401.92
2023-03-26T12:03:12.155Z,98399.25
2023-03-26T12:05:48.574Z,98403.48
2023-03-26T12:08:22.081Z,98403.77
2023-03-26T12:10:59.230Z,98401.68
2023-03-26T12:13:38.018Z,98400.61
2023-03-26T12:16:18.841Z,98397.41
2023-03-26T12:18:57.634Z,98397.44
2023-03-26T12:21:27.771Z,98390.02
2023-03-26T12:24:01.064Z,98384.97
2023-03-26T12:26:34.481Z,98383.01
2023-03-26T12:29:19.051Z,98381.60
2023-03-26T12:32:14.721Z,98382.42
2023-03-26T12:34:43.473Z,98382.02
2023-03-26T12:37:33.721Z,98380.64
2023-03-26T12:40:15.173Z,98375.63
2023-03-26T12:44:53.176Z,98374.30
2023-03-26T12:45:42.578Z,98377.52
2023-03-26T12:48:12.312Z,98376.00
2023-03-26T12:51:08.312Z,98371.95
2023-03-26T12:54:09.817Z,98365.10
2023-03-26T12:56:49.906Z,98364.62
2023-03-26T12:59:44.226Z,98366.70
2023-03-26T13:02:25.723Z,98363.34
2023-03-26T13:05:06.146Z,98366.98
2023-03-26T13:08:05.605Z,98366.52
2023-03-26T13:14:27.714Z,98358.39
2023-03-26T13:17:00.670Z,98357.25
2023-03-26T13:19:50.080Z,98357.05
2023-03-26T13:22:28.976Z,98361.23
2023-03-26T13:25:06.925Z,98353.06
2023-03-26T13:27:42.988Z,98353.41
2023-03-26T13:30:26.454Z,98354.69
2023-03-26T13:32:57.996Z,98360.01
2023-03-26T13:35:38.551Z,98359.55
2023-03-26T13:38:21.011Z,98365.71
2023-03-26T13:41:14.335Z,98363.91
2023-03-26T13:44:17.603Z,98368.57
2023-03-26T13:47:09.019Z,98363.41
2023-03-26T13:50:25.543Z,98361.92
2023-03-26T13:52:55.357Z,98363.73
2023-03-26T13:55:36.925Z,98363.23
2023-03-26T13:58:10.332Z,98361.75
2023-03-26T14:00:47.175Z,98360.08
2023-03-26T14:03:42.355Z,98360.09
2023-03-26T14:06:30.064Z,98361.27
2023-03-26T14:09:06.081Z,98354.84
2023-03-26T14:11:43.255Z,98355.58
2023-03-26T14:14:12.790Z,98359.02
2023-03-26T14:16:55.773Z,98351.69
2023-03-26T14:19:48.361Z,98357.42
2023-03-26T14:22:33.162Z,98352.64
2023-03-26T14:25:19.049Z,98355.27
2023-03-26T14:28:11.074Z,98352.73
2023-03-26T14:31:00.292Z,98358.27
2023-03-26T14:33:53.947Z,98361.50
2023-03-26T14:36:45.786Z,98359.97
2023-03-26T14:39:22.968Z,98364.06
2023-03-26T14:41:58.412Z,98365.95
2023-03-26T14:44:48.934Z,98371.41
2023-03-26T14:47:18.202Z,98380.77
2023-03-26T14:49:52.899Z,98390.50
2023-03-26T14:52:41.623Z,98388.23
2023-03-26T14:55:23.627Z,98385.70
2023-03-26T14:58:23.480Z,98380.42
2023-03-26T15:01:08.774Z,98377.19
2023-03-26T15:03:57.765Z,98368.97
2023-03-26T15:06:59.831Z,98368.48
2023-03-26T15:09:43.176Z,98369.58
2023-03-26T15:12:40.590Z,98364.10
2023-03-26T15:15:45.159Z,98366.05
2023-03-26T15:18:27.039Z,98363.66
2023-03-26T15:21:12.616Z,98363.29
2023-03-26T15:23:39.360Z,98365.04
2023-03-26T15:26:44.314Z,98372.68
2023-03-26T15:29:43.913Z,98370.56
2023-03-26T15:32:40.368Z,98368.77
2023-03-26T15:35:20.392Z,98367.63
2023-03-26T15:37:53.596Z,98367.91
2023-03-26T15:40:26.244Z,98370.23
2023-03-26T15:43:04.881Z,98372.23
2023-03-26T15:45:53.283Z,98372.03
2023-03-26T15:48:57.882Z,98373.75
2023-03-26T15:51:27.510Z,98371.63
2023-03-26T15:54:29.361Z,98376.02
2023-03-26T15:57:19.218Z,98379.60
2023-03-26T16:00:14.600Z,98382.33
2023-03-26T16:03:09.456Z,98390.23
2023-03-26T16:06:03.145Z,98392.14
2023-03-26T16:09:28.447Z,98395.54
2023-03-26T16:11:57.492Z,98402.35
2023-03-26T16:14:42.278Z,98404.55
2023-03-26T16:17:13.748Z,98409.21
2023-03-26T16:20:07.521Z,98410.81
2023-03-26T16:22:43.375Z,98418.06
2023-03-26T16:25:27.923Z,98418.81
2023-03-26T16:28:07.313Z,98416.33
2023-03-26T16:30:35.113Z,98426.67
2023-03-26T16:33:17.635Z,98432.38
2023-03-26T16:36:13.431Z,98430.52
2023-03-26T16:38:50.251Z,98436.83
2023-03-26T16:41:19.228Z,98436.33
2023-03-26T16:44:10.597Z,98440.74
2023-03-26T16:46:58.699Z,98440.33
2023-03-26T16:49:40.919Z,98443.84
2023-03-26T16:52:24.572Z,98449.95
2023-03-26T16:55:30.391Z,98454.42
2023-03-26T16:58:23.189Z,98459.77
2023-03-26T17:01:21.981Z,98466.69
2023-03-26T17:04:04.739Z,98469.99
2023-03-26T17:06:49.783Z,98476.73
2023-03-26T17:09:51.642Z,98478.11
2023-03-26T17:12:31.032Z,98464.52
2023-03-26T17:15:16.216Z,98462.94
2023-03-26T17:18:15.512Z,98461.47
2023-03-26T17:21:10.727Z,98461.43
2023-03-26T17:23:39.669Z,98459.52
2023-03-26T17:26:28.800Z,98460.20
2023-03-26T17:29:26.699Z,98456.97
2023-03-26T17:32:10.803Z,98456.23
2023-03-26T17:34:37.600Z,98457.42
2023-03-26T17:37:20.210Z,98457.41
2023-03-26T17:39:46.921Z,98460.65
2023-03-26T17:42:26.707Z,98460.77
2023-03-26T17:44:57.392Z,98466.54
2023-03-26T17:47:51.534Z,98468.00
2023-03-26T17:50:29.885Z,98470.88
2023-03-26T17:53:04.459Z,98470.41
2023-03-26T17:55:33.913Z,98470.45
2023-03-26T17:58:02.993Z,98474.89
2023-03-26T18:00:37.949Z,98479.91
2023-03-26T18:03:13.577Z,98477.57
2023-03-26T18:05:43.448Z,98479.81
2023-03-26T18:08:13.574Z,98477.77
2023-03-26T18:11:05.015Z,98481.39
2023-03-26T18:13:44.629Z,98481.25
2023-03-26T18:16:20.672Z,98483.19
2023-03-26T18:18:57.213Z,98483.23
2023-03-26T18:21:45.772Z,98481.62
2023-03-26T18:24:23.760Z,98479.55
2023-03-26T18:27:12.504Z,98477.83
2023-03-26T18:29:57.098Z,98478.03
2023-03-26T18:32:40.435Z,98480.70
2023-03-26T18:35:17.022Z,98479.90
2023-03-26T18:37:45.459Z,98481.65
2023-03-26T18:40:20.843Z,98486.13
2023-03-26T18:42:56.374Z,98484.73
2023-03-26T18:45:24.651Z,98484.88
2023-03-26T18:47:51.976Z,98488.16
2023-03-26T18:50:23.409Z,98486.12
2023-03-26T18:52:50.512Z,98483.67
2023-03-26T18:55:17.110Z,98484.61
2023-03-26T18:57:44.928Z,98480.73
2023-03-26T19:00:20.905Z,98482.34
2023-03-26T19:02:49.388Z,98483.94
2023-03-26T19:05:16.779Z,98481.30
2023-03-26T19:07:45.388Z,98487.59
2023-03-26T19:10:18.372Z,98487.52
2023-03-26T19:12:45.893Z,98491.86
2023-03-26T19:15:14.457Z,98490.95
2023-03-26T19:17:55.944Z,98482.74
2023-03-26T19:20:25.603Z,98481.89
2023-03-26T19:22:55.449Z,98484.54
2023-03-26T19:25:29.653Z,98484.19
2023-03-26T19:27:57.036Z,98484.59
2023-03-26T19:30:32.427Z,98479.86
2023-03-26T19:33:13.046Z,98479.23
2023-03-26T19:35:45.571Z,98480.61
2023-03-26T19:38:23.415Z,98475.73
2023-03-26T19:40:51.752Z,98476.80
2023-03-26T19:43:18.464Z,98478.05
2023-03-26T19:48:45.692Z,98481.05
2023-03-26T19:51:18.279Z,98477.77
2023-03-26T19:51:34.200Z,98478.52
2023-03-26T19:54:13.460Z,98476.63
2023-03-26T19:56:40.051Z,98470.23
2023-03-26T19:59:07.476Z,98472.77
2023-03-26T20:01:35.753Z,98471.17
2023-03-26T20:04:05.777Z,98468.13
2023-03-26T20:06:43.286Z,98471.65
2023-03-26T20:09:11.729Z,98468.41
2023-03-26T20:11:39.044Z,98473.36
2023-03-26T20:14:15.927Z,98473.71
2023-03-26T20:16:44.464Z,98472.14
2023-03-26T20:19:13.276Z,98468.80
2023-03-26T20:21:45.514Z,98472.08
2023-03-26T20:24:14.267Z,98468.40
2023-03-26T20:26:40.978Z,98474.13
2023-03-26T20:29:07.510Z,98475.88
2023-03-26T20:31:34.115Z,98475.14
2023-03-26T20:34:00.928Z,98477.61
2023-03-26T20:36:34.077Z,98477.47
2023-03-26T20:39:04.983Z,98474.88
2023-03-26T20:41:40.969Z,98476.60
2023-03-26T20:44:12.996Z,98473.79
2023-03-26T20:46:39.739Z,98473.12
2023-03-26T20:49:06.576Z,98471.05
2023-03-26T20:51:33.296Z,98473.09
2023-03-26T20:54:07.211Z,98477.00
2023-03-26T20:56:37.045Z,98478.03
2023-03-26T20:59:11.135Z,98479.79
2023-03-26T21:01:38.999Z,98479.57
2023-03-26T21:04:06.295Z,98480.10
2023-03-26T21:06:32.868Z,98480.19
2023-03-26T21:09:01.694Z,98481.14
2023-03-26T21:11:47.753Z,98485.88
2023-03-26T21:14:30.148Z,98484.71
2023-03-26T21:16:57.506Z,98484.08
2023-03-26T21:19:24.851Z,98482.17
2023-03-26T21:22:31.087Z,98483.17
2023-03-26T21:24:57.783Z,98483.83
2023-03-26T21:27:27.685Z,98483.79
2023-03-26T21:29:54.988Z,98485.52
2023-03-26T21:32:23.034Z,98481.86
2023-03-26T21:34:58.717Z,98485.67
2023-03-26T21:37:25.876Z,98486.77
2023-03-26T21:39:52.799Z,98487.98
2023-03-26T21:42:19.911Z,98486.91
2023-03-26T21:44:47.179Z,98486.75
2023-03-26T21:47:21.244Z,98484.63
2023-03-26T21:49:48.239Z,98485.74
2023-03-26T21:52:15.468Z,98491.19
2023-03-26T21:54:43.909Z,98490.71
2023-03-26T21:57:46.609Z,98482.59
2023-03-26T22:00:20.794Z,98473.82
2023-03-26T22:03:12.256Z,98477.77
2023-03-26T22:06:09.062Z,98484.24
2023-03-26T22:08:40.206Z,98485.44
2023-03-26T22:11:07.675Z,98484.02
2023-03-26T22:13:40.214Z,98481.19
2023-03-26T22:16:08.342Z,98477.75
2023-03-26T22:18:34.987Z,98484.23
2023-03-26T22:21:01.816Z,98477.73
2023-03-26T22:23:37.549Z,98483.39
2023-03-26T22:26:05.355Z,98475.59
2023-03-26T22:28:34.791Z,98478.20
2023-03-26T22:31:08.443Z,98471.15
2023-03-26T22:33:36.066Z,98470.98
2023-03-26T22:36:03.005Z,98474.77
2023-03-26T22:38:30.076Z,98472.72
2023-03-26T22:40:57.501Z,98470.27
2023-03-26T22:43:25.514Z,98466.83
2023-03-26T22:45:56.541Z,98465.37
2023-03-26T22:48:23.556Z,98469.38
2023-03-26T22:51:01.996Z,98472.70
2023-03-26T22:53:29.293Z,98470.95
2023-03-26T22:55:56.029Z,98472.27
2023-03-26T22:58:22.725Z,98466.01
2023-03-26T23:00:52.921Z,98467.70
2023-03-26T23:03:20.274Z,98466.77
2023-03-26T23:06:05.855Z,98467.83
2023-03-26T23:08:34.285Z,98467.52
2023-03-26T23:11:01.838Z,98466.17
2023-03-26T23:13:30.360Z,98464.69
2023-03-26T23:15:57.461Z,98464.66
2023-03-26T23:18:24.374Z,98459.23
2023-03-26T23:20:54.833Z,98455.76
2023-03-26T23:23:26.601Z,98459.63
2023-03-26T23:25:59.314Z,98455.97
2023-03-26T23:28:26.805Z,98455.83
2023-03-26T23:30:54.085Z,98454.56
2023-03-26T23:33:24.422Z,98453.50
2023-03-26T23:35:52.629Z,98454.11
2023-03-26T23:38:27.334Z,98459.93
2023-03-26T23:41:14.126Z,98451.93
2023-03-26T23:43:53.710Z,98456.73
2023-03-26T23:46:29.766Z,98457.23
2023-03-26T23:48:59.020Z,98452.19
2023-03-26T23:51:29.449Z,98451.52
2023-03-26T23:53:56.395Z,98451.04
2023-03-26T23:56:23.814Z,98453.55
2023-03-26T23:58:51.301Z,98454.89
